Time;durP1;ratioP1;P1;durP2;ratioP2;P2;SDS_P1;SDS_P2;PMS_P1;PMS_P2;Temp;Humidity;BMP_temperature;BMP_pressure;BME280_temperature;BME280_humidity;BME280_pressure;Samples;Min_cycle;Max_cycle;Signal;HPM_P1;HPM_P2
2023/07/04 00:01:58;;;;;;;;;;;;;;;;;;2197789;59;1850;-19
2023/07/04 00:04:29;;;;;;;;;;;;;;;;;;2197325;67;1861;-19
2023/07/04 00:07:03;;;;;;;;;;;;;;;;;;2197316;67;1918;-19
2023/07/04 00:09:33;;;;;;;;;;;;;;;;;;2197939;67;1774;-19
2023/07/04 00:12:03;;;;;;;;;;;;;;;;;;2194300;67;2772;-19
2023/07/04 00:14:33;;;;;;;;;;;;;;;;;;2197779;67;1900;-19
2023/07/04 00:17:05;;;;;;;;;;;;;;;;;;2197011;59;1815;-19
2023/07/04 00:19:35;;;;;;;;;;;;;;;;;;2198470;67;1947;-19
2023/07/04 00:22:05;;;;;;;;;;;;;;;;;;2197649;67;2368;-19
2023/07/04 00:24:37;;;;;;;;;;;;;;;;;;2198212;67;1770;-19
2023/07/04 00:27:07;;;;;;;;;;;;;;;;;;2194086;59;2046;-19
2023/07/04 00:29:38;;;;;;;;;;;;;;;;;;2198135;67;1568;-18
2023/07/04 00:32:09;;;;;;;;;;;;;;;;;;2197607;67;2481;-19
2023/07/04 00:34:45;;;;;;;;;;;;;;;;;;2198029;67;1979;-18
2023/07/04 00:37:17;;;;;;;;;;;;;;;;;;2197394;67;1865;-19
2023/07/04 00:39:49;;;;;;;;;;;;;;;;;;2195171;67;1636;-19
2023/07/04 00:42:21;;;;;;;;;;;;;;;;;;2197499;67;3117;-19
2023/07/04 00:44:55;;;;;;;;;;;;;;;;;;2196972;67;2591;-19
2023/07/04 00:47:42;;;;;;;;;;;;;;;;;;2197542;67;2523;-18
2023/07/04 00:50:13;;;;;;;;;;;;;;;;;;2195201;59;1734;-18
2023/07/04 00:52:45;;;;;;;;;;;;;;;;;;2198527;59;2632;-19
2023/07/04 00:55:15;;;;;;;;;;;;;;;;;;2197218;59;1777;-19
2023/07/04 00:57:47;;;;;;;;;;;;;;;;;;2194337;67;1783;-19
2023/07/04 01:00:24;;;;;;;;;;;;;;;;;;2197374;59;1774;-19
2023/07/04 01:03:03;;;;;;;;;;;;;;;;;;2194587;67;2471;-19
2023/07/04 01:05:42;;;;;;;;;;;;;;;;;;2197367;67;1938;-18
2023/07/04 01:08:20;;;;;;;;;;;;;;;;;;2196947;67;1974;-18
2023/07/04 01:10:51;;;;;;;;;;;;;;;;;;2197761;67;2477;-19
2023/07/04 01:13:33;;;;;;;;;;;;;;;;;;2197438;67;1748;-19
2023/07/04 01:16:10;;;;;;;;;;;;;;;;;;2196784;67;2261;-19
2023/07/04 01:18:42;;;;;;;;;;;;;;;;;;2197621;67;1560;-19
2023/07/04 01:21:15;;;;;;;;;;;;;;;;;;2197464;67;2425;-18
2023/07/04 01:24:03;;;;;;;;;;;;;;;;;;2197699;67;2027;-19
2023/07/04 01:26:42;;;;;;;;;;;;;;;;;;2197711;59;2338;-19
2023/07/04 01:29:13;;;;;;;;;;;;;;;;;;2197585;67;1890;-19
2023/07/04 01:31:44;;;;;;;;;;;;;;;;;;2197829;59;2732;-19
2023/07/04 01:34:17;;;;;;;;;;;;;;;;;;2197561;67;1800;-19
2023/07/04 01:36:49;;;;;;;;;;;;;;;;;;2198032;67;2790;-19
2023/07/04 01:39:19;;;;;;;;;;;;;;;;;;2194035;67;1759;-19
2023/07/04 01:41:52;;;;;;;;;;;;;;;;;;2198298;67;1826;-19
2023/07/04 01:44:24;;;;;;;;;;;;;;;;;;2196705;59;2172;-18
2023/07/04 01:46:54;;;;;;;;;;;;;;;;;;2197511;67;2553;-19
2023/07/04 01:49:25;;;;;;;;;;;;;;;;;;2197603;59;1766;-19
2023/07/04 01:51:55;;;;;;;;;;;;;;;;;;2197134;59;2130;-19
2023/07/04 01:54:25;;;;;;;;;;;;;;;;;;2197705;59;1864;-18
2023/07/04 01:56:56;;;;;;;;;;;;;;;;;;2197586;67;1843;-18
2023/07/04 01:59:26;;;;;;;;;;;;;;;;;;2197399;59;2221;-19
2023/07/04 02:01:57;;;;;;;;;;;;;;;;;;2194210;67;2160;-19
2023/07/04 02:04:27;;;;;;;;;;;;;;;;;;2193900;67;2228;-18
2023/07/04 02:06:57;;;;;;;;;;;;;;;;;;2197720;67;1840;-19
2023/07/04 02:09:27;;;;;;;;;;;;;;;;;;2194313;59;1680;-19
2023/07/04 02:11:57;;;;;;;;;;;;;;;;;;2197273;67;2393;-19
2023/07/04 02:14:28;;;;;;;;;;;;;;;;;;2198072;67;1686;-18
2023/07/04 02:16:58;;;;;;;;;;;;;;;;;;2194213;59;1959;-19
2023/07/04 02:19:28;;;;;;;;;;;;;;;;;;2198028;67;1762;-19
2023/07/04 02:21:58;;;;;;;;;;;;;;;;;;2198142;67;1358;-18
2023/07/04 02:24:29;;;;;;;;;;;;;;;;;;2197548;67;2011;-19
2023/07/04 02:27:00;;;;;;;;;;;;;;;;;;2194285;59;2419;-19
2023/07/04 02:29:30;;;;;;;;;;;;;;;;;;2197841;67;2034;-19
2023/07/04 02:32:01;;;;;;;;;;;;;;;;;;2194401;59;2345;-19
2023/07/04 02:34:31;;;;;;;;;;;;;;;;;;2196668;67;2516;-18
2023/07/04 02:37:02;;;;;;;;;;;;;;;;;;2194016;67;2386;-19
2023/07/04 02:39:32;;;;;;;;;;;;;;;;;;2197885;67;2099;-18
2023/07/04 02:42:04;;;;;;;;;;;;;;;;;;2197464;67;2290;-19
2023/07/04 02:44:35;;;;;;;;;;;;;;;;;;2196709;60;2104;-19
2023/07/04 02:47:06;;;;;;;;;;;;;;;;;;2196738;67;2632;-19
2023/07/04 02:49:38;;;;;;;;;;;;;;;;;;2198068;67;2064;-19
2023/07/04 02:52:08;;;;;;;;;;;;;;;;;;2193932;67;2736;-19
2023/07/04 02:54:38;;;;;;;;;;;;;;;;;;2198102;59;1996;-19
2023/07/04 02:57:13;;;;;;;;;;;;;;;;;;2197307;60;1990;-18
2023/07/04 02:59:44;;;;;;;;;;;;;;;;;;2198309;67;1996;-18
2023/07/04 03:02:14;;;;;;;;;;;;;;;;;;2197882;67;2724;-18
2023/07/04 03:04:47;;;;;;;;;;;;;;;;;;2195196;67;2355;-19
2023/07/04 03:07:18;;;;;;;;;;;;;;;;;;2197696;67;3754;-18
2023/07/04 03:09:48;;;;;;;;;;;;;;;;;;2198551;67;1773;-19
2023/07/04 03:12:19;;;;;;;;;;;;;;;;;;2194514;67;2425;-19
2023/07/04 03:14:49;;;;;;;;;;;;;;;;;;2197905;67;1875;-18
2023/07/04 03:17:19;;;;;;;;;;;;;;;;;;2197497;67;1752;-18
2023/07/04 03:19:52;;;;;;;;;;;;;;;;;;2198411;67;2480;-18
2023/07/04 03:22:23;;;;;;;;;;;;;;;;;;2198306;67;1976;-19
2023/07/04 03:24:53;;;;;;;;;;;;;;;;;;2198529;67;1806;-19
2023/07/04 03:27:23;;;;;;;;;;;;;;;;;;2197874;59;1767;-19
2023/07/04 03:29:53;;;;;;;;;;;;;;;;;;2199327;67;1547;-19
2023/07/04 03:32:23;;;;;;;;;;;;;;;;;;2194634;67;2791;-19
2023/07/04 03:34:55;;;;;;;;;;;;;;;;;;2198231;67;1890;-19
2023/07/04 03:37:25;;;;;;;;;;;;;;;;;;2198278;67;2090;-19
2023/07/04 03:39:56;;;;;;;;;;;;;;;;;;2195661;60;2075;-19
2023/07/04 03:42:26;;;;;;;;;;;;;;;;;;2195301;67;2281;-19
2023/07/04 03:44:57;;;;;;;;;;;;;;;;;;2195787;67;1755;-19
2023/07/04 03:47:27;;;;;;;;;;;;;;;;;;2196737;59;2533;-19
2023/07/04 03:49:57;;;;;;;;;;;;;;;;;;2197934;59;1760;-19
2023/07/04 03:52:28;;;;;;;;;;;;;;;;;;2197384;59;2394;-19
2023/07/04 03:54:58;;;;;;;;;;;;;;;;;;2195033;59;2316;-19
2023/07/04 03:57:28;;;;;;;;;;;;;;;;;;2197361;59;1866;-19
2023/07/04 03:59:58;;;;;;;;;;;;;;;;;;2198182;67;1797;-19
2023/07/04 04:02:29;;;;;;;;;;;;;;;;;;2198046;67;1767;-19
2023/07/04 04:04:59;;;;;;;;;;;;;;;;;;2197496;64;1503;-19
2023/07/04 04:07:29;;;;;;;;;;;;;;;;;;2194009;67;2602;-20
2023/07/04 04:10:00;;;;;;;;;;;;;;;;;;2198103;67;3022;-20
2023/07/04 04:12:31;;;;;;;;;;;;;;;;;;2197961;67;2111;-20
2023/07/04 04:15:02;;;;;;;;;;;;;;;;;;2198206;59;1588;-20
2023/07/04 04:17:33;;;;;;;;;;;;;;;;;;2197142;67;1792;-20
2023/07/04 04:20:06;;;;;;;;;;;;;;;;;;2195091;67;2296;-20
2023/07/04 04:22:37;;;;;;;;;;;;;;;;;;2195180;67;2451;-20
2023/07/04 04:25:08;;;;;;;;;;;;;;;;;;2198260;67;1988;-19
2023/07/04 04:27:38;;;;;;;;;;;;;;;;;;2197874;59;1868;-19
2023/07/04 04:30:10;;;;;;;;;;;;;;;;;;2197663;67;2234;-20
2023/07/04 04:32:41;;;;;;;;;;;;;;;;;;2198135;59;1983;-19
2023/07/04 04:35:12;;;;;;;;;;;;;;;;;;2197755;67;1963;-19
2023/07/04 04:37:42;;;;;;;;;;;;;;;;;;2198244;67;2029;-19
2023/07/04 04:40:12;;;;;;;;;;;;;;;;;;2194653;59;2572;-21
2023/07/04 04:42:43;;;;;;;;;;;;;;;;;;2195526;59;1573;-19
2023/07/04 04:45:14;;;;;;;;;;;;;;;;;;2194303;59;1857;-19
2023/07/04 04:47:48;;;;;;;;;;;;;;;;;;2196938;59;2916;-19
2023/07/04 04:50:19;;;;;;;;;;;;;;;;;;2197706;59;2414;-20
2023/07/04 04:52:50;;;;;;;;;;;;;;;;;;2198111;59;1952;-22
2023/07/04 04:55:20;;;;;;;;;;;;;;;;;;2197520;59;2225;-20
2023/07/04 04:57:51;;;;;;;;;;;;;;;;;;2194843;60;1779;-19
2023/07/04 05:00:22;;;;;;;;;;;;;;;;;;2194078;59;2202;-19
2023/07/04 05:02:54;;;;;;;;;;;;;;;;;;2197789;59;2589;-20
2023/07/04 05:05:25;;;;;;;;;;;;;;;;;;2197519;59;1786;-19
2023/07/04 05:07:55;;;;;;;;;;;;;;;;;;2197224;59;2096;-20
2023/07/04 05:10:25;;;;;;;;;;;;;;;;;;2198258;59;2422;-19
2023/07/04 05:12:57;;;;;;;;;;;;;;;;;;2197188;59;2018;-20
2023/07/04 05:15:28;;;;;;;;;;;;;;;;;;2198030;59;2683;-21
2023/07/04 05:17:58;;;;;;;;;;;;;;;;;;2197798;67;2504;-22
2023/07/04 05:20:28;;;;;;;;;;;;;;;;;;2195115;67;2454;-21
2023/07/04 05:23:02;;;;;;;;;;;;;;;;;;2197845;67;2131;-22
2023/07/04 05:25:32;;;;;;;;;;;;;;;;;;2197495;59;2150;-22
2023/07/04 05:28:02;;;;;;;;;;;;;;;;;;2198089;59;2803;-23
2023/07/04 05:30:33;;;;;;;;;;;;;;;;;;2197410;59;2375;-21
2023/07/04 05:33:03;;;;;;;;;;;;;;;;;;2197946;59;2678;-21
2023/07/04 05:35:33;;;;;;;;;;;;;;;;;;2197896;67;2520;-22
2023/07/04 05:38:03;;;;;;;;;;;;;;;;;;2197720;59;1869;-21
2023/07/04 05:40:38;;;;;;;;;;;;;;;;;;2197819;67;2764;-22
2023/07/04 05:43:08;;;;;;;;;;;;;;;;;;2204937;54;3724;-18
2023/07/04 05:45:46;;;;;;;;;;;;;;;;;;2204038;67;1722;-18
2023/07/04 05:48:16;;;;;;;;;;;;;;;;;;2206991;59;2323;-18
2023/07/04 05:50:50;;;;;;;;;;;;;;;;;;2208663;59;2622;-18
2023/07/04 05:53:24;;;;;;;;;;;;;;;;;;2207531;59;5495;-18
2023/07/04 05:56:14;;;;;;;;;;;;;;;;;;2203812;67;1619;-18
2023/07/04 05:58:46;;;;;;;;;;;;;;;;;;2205253;67;1935;-19
2023/07/04 06:01:18;;;;;;;;;;;;;;;;;;2207317;67;2271;-19
2023/07/04 06:03:48;;;;;;;;;;;;;;;;;;2204377;67;1678;-19
2023/07/04 06:06:25;;;;;;;;;;;;;;;;;;2207404;67;1512;-19
2023/07/04 06:08:56;;;;;;;;;;;;;;;;;;2207004;67;1390;-19
2023/07/04 06:11:30;;;;;;;;;;;;;;;;;;2207648;67;1916;-19
2023/07/04 06:14:04;;;;;;;;;;;;;;;;;;2207985;67;1300;-19
2023/07/04 06:16:34;;;;;;;;;;;;;;;;;;2203889;67;1230;-19
2023/07/04 06:19:05;;;;;;;;;;;;;;;;;;2207039;67;1544;-19
2023/07/04 06:21:35;;;;;;;;;;;;;;;;;;2207167;67;1166;-19
2023/07/04 06:24:06;;;;;;;;;;;;;;;;;;2202102;67;1264;-19
2023/07/04 06:26:36;;;;;;;;;;;;;;;;;;2207367;59;1513;-19
2023/07/04 06:29:06;;;;;;;;;;;;;;;;;;2203526;59;2429;-19
2023/07/04 06:31:41;;;;;;;;;;;;;;;;;;2205057;59;1995;-19
2023/07/04 06:34:12;;;;;;;;;;;;;;;;;;2208308;67;1479;-19
2023/07/04 06:36:48;;;;;;;;;;;;;;;;;;2207452;59;2175;-19
2023/07/04 06:39:18;;;;;;;;;;;;;;;;;;2204059;59;2126;-19
2023/07/04 06:41:51;;;;;;;;;;;;;;;;;;2208042;59;2213;-19
2023/07/04 06:44:21;;;;;;;;;;;;;;;;;;2207434;67;1716;-19
2023/07/04 06:46:51;;;;;;;;;;;;;;;;;;2207837;67;1413;-19
2023/07/04 06:49:23;;;;;;;;;;;;;;;;;;2202262;59;2348;-19
2023/07/04 06:51:53;;;;;;;;;;;;;;;;;;2207429;59;2474;-19
2023/07/04 06:54:23;;;;;;;;;;;;;;;;;;2207803;67;1765;-19
2023/07/04 06:56:53;;;;;;;;;;;;;;;;;;2204517;67;1696;-19
2023/07/04 06:59:24;;;;;;;;;;;;;;;;;;2204350;59;1973;-19
2023/07/04 07:01:54;;;;;;;;;;;;;;;;;;2208420;67;1328;-19
2023/07/04 07:04:24;;;;;;;;;;;;;;;;;;2207425;67;1233;-19
2023/07/04 07:06:54;;;;;;;;;;;;;;;;;;2207981;67;2087;-19
2023/07/04 07:09:30;;;;;;;;;;;;;;;;;;2208807;67;1272;-19
2023/07/04 07:12:00;;;;;;;;;;;;;;;;;;2208079;59;2380;-19
2023/07/04 07:14:31;;;;;;;;;;;;;;;;;;2208369;59;1908;-19
2023/07/04 07:17:02;;;;;;;;;;;;;;;;;;2204384;67;1225;-19
2023/07/04 07:19:32;;;;;;;;;;;;;;;;;;2208853;67;1695;-19
2023/07/04 07:22:02;;;;;;;;;;;;;;;;;;2208117;67;2116;-19
2023/07/04 07:24:33;;;;;;;;;;;;;;;;;;2204417;67;1718;-19
2023/07/04 07:27:03;;;;;;;;;;;;;;;;;;2208335;59;1215;-19
2023/07/04 07:29:34;;;;;;;;;;;;;;;;;;2204542;67;2132;-19
2023/07/04 07:32:05;;;;;;;;;;;;;;;;;;2207669;67;2024;-19
2023/07/04 07:34:35;;;;;;;;;;;;;;;;;;2208003;59;2315;-20
2023/07/04 07:37:06;;;;;;;;;;;;;;;;;;2208751;67;1299;-21
2023/07/04 07:39:37;;;;;;;;;;;;;;;;;;2207918;59;1958;-21
2023/07/04 07:42:08;;;;;;;;;;;;;;;;;;2208097;59;1501;-21
2023/07/04 07:44:38;;;;;;;;;;;;;;;;;;2203938;59;2071;-21
2023/07/04 07:47:10;;;;;;;;;;;;;;;;;;2208346;67;1581;-20
2023/07/04 07:49:40;;;;;;;;;;;;;;;;;;2208080;59;2264;-21
2023/07/04 07:52:10;;;;;;;;;;;;;;;;;;2207123;59;3055;-21
2023/07/04 07:54:41;;;;;;;;;;;;;;;;;;2208465;67;2787;-20
2023/07/04 07:57:11;;;;;;;;;;;;;;;;;;2204292;59;2133;-19
2023/07/04 07:59:41;;;;;;;;;;;;;;;;;;2207992;59;1662;-20
2023/07/04 08:02:13;;;;;;;;;;;;;;;;;;2203741;67;1764;-20
2023/07/04 08:04:43;;;;;;;;;;;;;;;;;;2208256;67;1976;-20
2023/07/04 08:07:13;;;;;;;;;;;;;;;;;;2206931;59;2198;-19
2023/07/04 08:09:43;;;;;;;;;;;;;;;;;;2207848;59;1739;-19
2023/07/04 08:12:14;;;;;;;;;;;;;;;;;;2207713;67;2327;-21
2023/07/04 08:14:44;;;;;;;;;;;;;;;;;;2207838;67;2528;-21
2023/07/04 08:17:14;;;;;;;;;;;;;;;;;;2207051;67;2180;-21
2023/07/04 08:19:44;;;;;;;;;;;;;;;;;;2207609;67;1576;-21
2023/07/04 08:22:15;;;;;;;;;;;;;;;;;;2208037;67;1817;-21
2023/07/04 08:24:48;;;;;;;;;;;;;;;;;;2203806;67;1589;-21
2023/07/04 08:27:18;;;;;;;;;;;;;;;;;;2205896;59;2221;-21
2023/07/04 08:29:49;;;;;;;;;;;;;;;;;;2206486;59;1296;-21
2023/07/04 08:32:19;;;;;;;;;;;;;;;;;;2203015;59;2001;-21
2023/07/04 08:34:49;;;;;;;;;;;;;;;;;;2206389;59;1727;-20
2023/07/04 08:37:22;;;;;;;;;;;;;;;;;;2207451;67;1787;-20
2023/07/04 08:39:52;;;;;;;;;;;;;;;;;;2207041;59;1977;-20
2023/07/04 08:42:24;;;;;;;;;;;;;;;;;;2207504;59;2109;-20
2023/07/04 08:44:55;;;;;;;;;;;;;;;;;;2206783;67;1355;-20
2023/07/04 08:47:25;;;;;;;;;;;;;;;;;;2202349;67;1778;-21
2023/07/04 08:50:01;;;;;;;;;;;;;;;;;;2206035;59;2662;-20
2023/07/04 08:52:52;;;;;;;;;;;;;;;;;;2205161;67;2336;-20
2023/07/04 08:55:23;;;;;;;;;;;;;;;;;;2205970;67;1966;-20
2023/07/04 08:58:01;;;;;;;;;;;;;;;;;;2202105;67;2067;-18
2023/07/04 09:00:36;;;;;;;;;;;;;;;;;;2206825;67;1957;-18
2023/07/04 09:03:25;;;;;;;;;;;;;;;;;;2206476;67;2614;-18
2023/07/04 09:06:04;;;;;;;;;;;;;;;;;;2206130;67;2147;-18
2023/07/04 09:08:45;;;;;;;;;;;;;;;;;;2205888;60;2041;-20
2023/07/04 09:11:16;;;;;;;;;;;;;;;;;;2206221;67;2402;-20
2023/07/04 09:13:49;;;;;;;;;;;;;;;;;;2203056;67;2573;-18
2023/07/04 09:16:35;;;;;;;;;;;;;;;;;;2206286;67;1834;-18
2023/07/04 09:19:07;;;;;;;;;;;;;;;;;;2202390;59;2015;-18
2023/07/04 09:21:38;;;;;;;;;;;;;;;;;;2205972;59;2752;-18
2023/07/04 09:24:11;;;;;;;;;;;;;;;;;;2206391;67;1935;-18
2023/07/04 09:26:44;;;;;;;;;;;;;;;;;;2206474;59;2329;-19
2023/07/04 09:29:20;;;;;;;;;;;;;;;;;;2205375;67;2593;-18
2023/07/04 09:31:55;;;;;;;;;;;;;;;;;;2207144;59;1988;-18
2023/07/04 09:34:31;;;;;;;;;;;;;;;;;;2206718;67;1647;-18
2023/07/04 09:37:08;;;;;;;;;;;;;;;;;;2206328;67;1669;-18
2023/07/04 09:39:48;;;;;;;;;;;;;;;;;;2207609;59;1822;-18
2023/07/04 09:42:19;;;;;;;;;;;;;;;;;;2206243;59;1573;-18
2023/07/04 09:44:53;;;;;;;;;;;;;;;;;;2207216;59;1872;-18
2023/07/04 09:47:25;;;;;;;;;;;;;;;;;;2206603;67;1884;-18
2023/07/04 09:50:07;;;;;;;;;;;;;;;;;;2206421;67;2713;-18
2023/07/04 09:52:38;;;;;;;;;;;;;;;;;;2202353;59;2691;-18
2023/07/04 09:55:14;;;;;;;;;;;;;;;;;;2207057;67;2270;-18
2023/07/04 09:57:44;;;;;;;;;;;;;;;;;;2206641;59;1522;-18
2023/07/04 10:00:17;;;;;;;;;;;;;;;;;;2206004;67;1535;-20
2023/07/04 10:02:48;;;;;;;;;;;;;;;;;;2205720;67;2275;-20
2023/07/04 10:05:45;;;;;;;;;;;;;;;;;;2204074;59;2112;-21
2023/07/04 10:08:15;;;;;;;;;;;;;;;;;;2205454;59;2103;-21
2023/07/04 10:10:45;;;;;;;;;;;;;;;;;;2205690;59;1996;-21
2023/07/04 10:13:18;;;;;;;;;;;;;;;;;;2206320;59;1977;-21
2023/07/04 10:15:49;;;;;;;;;;;;;;;;;;2204698;59;2392;-20
2023/07/04 10:18:25;;;;;;;;;;;;;;;;;;2205699;59;2432;-21
2023/07/04 10:20:56;;;;;;;;;;;;;;;;;;2205770;59;2440;-21
2023/07/04 10:23:27;;;;;;;;;;;;;;;;;;2206628;67;2489;-21
2023/07/04 10:26:00;;;;;;;;;;;;;;;;;;2206564;59;1898;-21
2023/07/04 10:28:31;;;;;;;;;;;;;;;;;;2205959;59;2158;-21
2023/07/04 10:31:06;;;;;;;;;;;;;;;;;;2206512;67;2329;-21
2023/07/04 10:33:36;;;;;;;;;;;;;;;;;;2202200;59;2291;-21
2023/07/04 10:36:09;;;;;;;;;;;;;;;;;;2202160;59;2609;-20
2023/07/04 10:38:42;;;;;;;;;;;;;;;;;;2206366;59;1774;-20
2023/07/04 10:41:33;;;;;;;;;;;;;;;;;;2205922;59;2406;-21
2023/07/04 10:44:05;;;;;;;;;;;;;;;;;;2199543;59;1678;-21
2023/07/04 10:46:41;;;;;;;;;;;;;;;;;;2206039;59;2403;-21
2023/07/04 10:49:15;;;;;;;;;;;;;;;;;;2205861;59;2375;-21
2023/07/04 10:51:47;;;;;;;;;;;;;;;;;;2206362;59;2007;-21
2023/07/04 10:54:19;;;;;;;;;;;;;;;;;;2204315;59;3058;-21
2023/07/04 10:56:51;;;;;;;;;;;;;;;;;;2204651;59;2251;-21
2023/07/04 10:59:27;;;;;;;;;;;;;;;;;;2202817;67;2010;-21
2023/07/04 11:02:03;;;;;;;;;;;;;;;;;;2205760;60;1930;-21
2023/07/04 11:04:36;;;;;;;;;;;;;;;;;;2205779;59;2878;-21
2023/07/04 11:07:12;;;;;;;;;;;;;;;;;;2201034;59;1409;-21
2023/07/04 11:09:42;;;;;;;;;;;;;;;;;;2206838;67;1346;-21
2023/07/04 11:12:15;;;;;;;;;;;;;;;;;;2201758;59;2385;-21
2023/07/04 11:14:47;;;;;;;;;;;;;;;;;;2207355;67;1558;-21
2023/07/04 11:17:21;;;;;;;;;;;;;;;;;;2206358;67;1984;-21
2023/07/04 11:20:06;;;;;;;;;;;;;;;;;;2204010;59;1398;-21
2023/07/04 11:22:51;;;;;;;;;;;;;;;;;;2201430;59;2335;-20
2023/07/04 11:25:34;;;;;;;;;;;;;;;;;;2205761;59;2182;-20
2023/07/04 11:28:16;;;;;;;;;;;;;;;;;;2205751;67;1321;-20
2023/07/04 11:30:48;;;;;;;;;;;;;;;;;;2207269;59;1929;-20
2023/07/04 11:33:40;;;;;;;;;;;;;;;;;;2207250;67;1523;-20
2023/07/04 11:36:28;;;;;;;;;;;;;;;;;;2206418;67;1593;-20
2023/07/04 11:39:18;;;;;;;;;;;;;;;;;;2205682;59;2328;-20
2023/07/04 11:41:49;;;;;;;;;;;;;;;;;;2207310;59;1647;-20
2023/07/04 11:44:30;;;;;;;;;;;;;;;;;;2206639;53;2083;-22
2023/07/04 11:47:05;;;;;;;;;;;;;;;;;;2204685;67;1862;-22
2023/07/04 11:49:35;;;;;;;;;;;;;;;;;;2204770;59;1933;-22
2023/07/04 11:52:16;;;;;;;;;;;;;;;;;;2204836;59;2649;-22
2023/07/04 11:55:00;;;;;;;;;;;;;;;;;;2202035;59;2150;-22
2023/07/04 11:57:49;;;;;;;;;;;;;;;;;;2201406;67;1785;-22
2023/07/04 12:00:43;;;;;;;;;;;;;;;;;;2197053;67;2056;-22
2023/07/04 12:03:17;;;;;;;;;;;;;;;;;;2199059;67;2989;-23
2023/07/04 12:05:50;;;;;;;;;;;;;;;;;;2201593;67;1709;-23
2023/07/04 12:08:39;;;;;;;;;;;;;;;;;;2201084;59;2204;-23
2023/07/04 12:11:17;;;;;;;;;;;;;;;;;;2200742;60;2113;-23
2023/07/04 12:13:49;;;;;;;;;;;;;;;;;;2201251;59;2319;-22
2023/07/04 12:16:20;;;;;;;;;;;;;;;;;;2201239;67;1753;-23
2023/07/04 12:18:53;;;;;;;;;;;;;;;;;;2200832;59;2501;-23
2023/07/04 12:21:24;;;;;;;;;;;;;;;;;;2199830;59;3899;-23
2023/07/04 12:23:54;;;;;;;;;;;;;;;;;;2201824;59;2045;-23
2023/07/04 12:26:28;;;;;;;;;;;;;;;;;;2201560;59;2753;-22
2023/07/04 12:29:01;;;;;;;;;;;;;;;;;;2199388;59;2220;-22
2023/07/04 12:31:31;;;;;;;;;;;;;;;;;;2197262;59;3090;-23
2023/07/04 12:34:01;;;;;;;;;;;;;;;;;;2199691;59;2156;-22
2023/07/04 12:36:37;;;;;;;;;;;;;;;;;;2201733;67;1474;-22
2023/07/04 12:39:07;;;;;;;;;;;;;;;;;;2201480;59;2426;-22
2023/07/04 12:41:40;;;;;;;;;;;;;;;;;;2203230;67;2151;-22
2023/07/04 12:44:13;;;;;;;;;;;;;;;;;;2200770;59;2394;-22
2023/07/04 12:46:43;;;;;;;;;;;;;;;;;;2201653;59;3297;-22
2023/07/04 12:49:16;;;;;;;;;;;;;;;;;;2201253;59;2556;-22
2023/07/04 12:51:47;;;;;;;;;;;;;;;;;;2201282;59;2777;-22
2023/07/04 12:54:17;;;;;;;;;;;;;;;;;;2200807;59;2536;-23
2023/07/04 12:56:48;;;;;;;;;;;;;;;;;;2200474;59;2823;-23
2023/07/04 12:59:36;;;;;;;;;;;;;;;;;;2200962;59;2116;-22
2023/07/04 13:02:13;;;;;;;;;;;;;;;;;;2197791;59;3775;-23
2023/07/04 13:04:43;;;;;;;;;;;;;;;;;;2201347;59;2075;-22
2023/07/04 13:07:13;;;;;;;;;;;;;;;;;;2202135;67;1806;-22
2023/07/04 13:09:44;;;;;;;;;;;;;;;;;;2200781;67;1787;-23
2023/07/04 13:12:22;;;;;;;;;;;;;;;;;;2201475;67;2020;-23
2023/07/04 13:15:05;;;;;;;;;;;;;;;;;;2201724;67;2473;-22
2023/07/04 13:17:35;;;;;;;;;;;;;;;;;;2201222;67;1878;-23
2023/07/04 13:20:15;;;;;;;;;;;;;;;;;;2199454;67;1936;-22
2023/07/04 13:22:46;;;;;;;;;;;;;;;;;;2200993;67;1794;-23
2023/07/04 13:25:18;;;;;;;;;;;;;;;;;;2200924;59;2096;-23
2023/07/04 13:27:52;;;;;;;;;;;;;;;;;;2200493;59;1740;-23
2023/07/04 13:30:24;;;;;;;;;;;;;;;;;;2197187;67;2349;-22
2023/07/04 13:32:55;;;;;;;;;;;;;;;;;;2200916;67;2658;-23
2023/07/04 13:35:35;;;;;;;;;;;;;;;;;;2201959;67;1926;-23
2023/07/04 13:38:07;;;;;;;;;;;;;;;;;;2201203;59;1806;-22
2023/07/04 13:40:37;;;;;;;;;;;;;;;;;;2200671;67;2251;-23
2023/07/04 13:43:07;;;;;;;;;;;;;;;;;;2201387;59;2727;-23
2023/07/04 13:45:38;;;;;;;;;;;;;;;;;;2201501;59;2217;-22
2023/07/04 13:48:11;;;;;;;;;;;;;;;;;;2201051;67;2461;-23
2023/07/04 13:50:41;;;;;;;;;;;;;;;;;;2201178;59;3473;-23
2023/07/04 13:53:11;;;;;;;;;;;;;;;;;;2200282;59;2171;-22
2023/07/04 13:55:42;;;;;;;;;;;;;;;;;;2199526;59;2383;-23
2023/07/04 13:58:12;;;;;;;;;;;;;;;;;;2199822;59;2467;-22
2023/07/04 14:00:42;;;;;;;;;;;;;;;;;;2200512;59;1775;-23
2023/07/04 14:03:13;;;;;;;;;;;;;;;;;;2199623;67;2689;-23
2023/07/04 14:05:43;;;;;;;;;;;;;;;;;;2199859;59;2097;-23
2023/07/04 14:08:14;;;;;;;;;;;;;;;;;;2200253;67;2027;-23
2023/07/04 14:10:44;;;;;;;;;;;;;;;;;;2200512;67;1782;-23
2023/07/04 14:13:14;;;;;;;;;;;;;;;;;;2200819;67;2552;-23
2023/07/04 14:15:52;;;;;;;;;;;;;;;;;;2201575;67;1952;-23
2023/07/04 14:18:22;;;;;;;;;;;;;;;;;;2201336;59;2732;-22
2023/07/04 14:20:53;;;;;;;;;;;;;;;;;;2200958;59;2156;-23
2023/07/04 14:23:23;;;;;;;;;;;;;;;;;;2201509;67;1877;-23
2023/07/04 14:25:53;;;;;;;;;;;;;;;;;;2201773;59;1810;-23
2023/07/04 14:28:26;;;;;;;;;;;;;;;;;;2201316;67;2005;-23
2023/07/04 14:30:57;;;;;;;;;;;;;;;;;;2201282;59;2268;-22
2023/07/04 14:33:27;;;;;;;;;;;;;;;;;;2201300;59;2711;-23
2023/07/04 14:35:57;;;;;;;;;;;;;;;;;;2201854;67;2481;-23
2023/07/04 14:38:28;;;;;;;;;;;;;;;;;;2201408;59;1753;-23
2023/07/04 14:41:01;;;;;;;;;;;;;;;;;;2201606;67;2252;-23
2023/07/04 14:43:31;;;;;;;;;;;;;;;;;;2201779;67;1755;-22
2023/07/04 14:46:03;;;;;;;;;;;;;;;;;;2201157;67;1741;-23
2023/07/04 14:48:33;;;;;;;;;;;;;;;;;;2201581;60;1693;-22
2023/07/04 14:51:05;;;;;;;;;;;;;;;;;;2197970;59;2006;-23
2023/07/04 14:53:36;;;;;;;;;;;;;;;;;;2201423;59;2116;-23
2023/07/04 14:56:07;;;;;;;;;;;;;;;;;;2198180;67;2709;-23
2023/07/04 14:58:38;;;;;;;;;;;;;;;;;;2201400;59;2384;-22
2023/07/04 15:01:13;;;;;;;;;;;;;;;;;;2201566;67;1635;-23
2023/07/04 15:03:43;;;;;;;;;;;;;;;;;;2202319;59;2365;-23
2023/07/04 15:06:14;;;;;;;;;;;;;;;;;;2201925;59;2251;-23
2023/07/04 15:08:44;;;;;;;;;;;;;;;;;;2199118;59;1740;-22
2023/07/04 15:11:15;;;;;;;;;;;;;;;;;;2200950;59;1940;-23
2023/07/04 15:13:46;;;;;;;;;;;;;;;;;;2201539;67;2026;-23
2023/07/04 15:16:17;;;;;;;;;;;;;;;;;;2200872;59;1497;-23
2023/07/04 15:18:48;;;;;;;;;;;;;;;;;;2201554;59;2275;-23
2023/07/04 15:21:18;;;;;;;;;;;;;;;;;;2201733;67;2658;-23
2023/07/04 15:23:48;;;;;;;;;;;;;;;;;;2200233;59;2150;-23
2023/07/04 15:26:19;;;;;;;;;;;;;;;;;;2201510;59;2583;-23
2023/07/04 15:28:49;;;;;;;;;;;;;;;;;;2201781;59;2787;-23
2023/07/04 15:31:19;;;;;;;;;;;;;;;;;;2200905;59;2159;-23
2023/07/04 15:33:51;;;;;;;;;;;;;;;;;;2201982;59;2440;-22
2023/07/04 15:36:21;;;;;;;;;;;;;;;;;;2201790;67;2613;-23
2023/07/04 15:38:52;;;;;;;;;;;;;;;;;;2202439;67;1777;-23
2023/07/04 15:41:26;;;;;;;;;;;;;;;;;;2198278;59;2535;-23
2023/07/04 15:43:56;;;;;;;;;;;;;;;;;;2202082;59;2472;-23
2023/07/04 15:46:26;;;;;;;;;;;;;;;;;;2202257;59;2076;-23
2023/07/04 15:48:57;;;;;;;;;;;;;;;;;;2202053;67;1867;-23
2023/07/04 15:51:27;;;;;;;;;;;;;;;;;;2201893;59;2233;-23
2023/07/04 15:53:57;;;;;;;;;;;;;;;;;;2201722;67;1878;-23
2023/07/04 15:56:27;;;;;;;;;;;;;;;;;;2200757;59;2214;-23
2023/07/04 15:58:58;;;;;;;;;;;;;;;;;;2200017;59;2807;-23
2023/07/04 16:01:28;;;;;;;;;;;;;;;;;;2201420;59;1998;-23
2023/07/04 16:04:00;;;;;;;;;;;;;;;;;;2201543;59;2069;-23
2023/07/04 16:06:30;;;;;;;;;;;;;;;;;;2198457;67;2925;-23
2023/07/04 16:09:00;;;;;;;;;;;;;;;;;;2200578;59;1934;-23
2023/07/04 16:11:31;;;;;;;;;;;;;;;;;;2201515;59;2269;-23
2023/07/04 16:14:01;;;;;;;;;;;;;;;;;;2201179;67;1794;-23
2023/07/04 16:16:31;;;;;;;;;;;;;;;;;;2201850;59;1976;-23
2023/07/04 16:19:04;;;;;;;;;;;;;;;;;;2201651;67;1790;-23
2023/07/04 16:21:34;;;;;;;;;;;;;;;;;;2201819;59;2218;-23
2023/07/04 16:24:05;;;;;;;;;;;;;;;;;;2200506;59;2976;-23
2023/07/04 16:26:35;;;;;;;;;;;;;;;;;;2201624;59;2378;-23
2023/07/04 16:29:05;;;;;;;;;;;;;;;;;;2197517;67;2492;-22
2023/07/04 16:31:36;;;;;;;;;;;;;;;;;;2202054;59;1983;-22
2023/07/04 16:34:07;;;;;;;;;;;;;;;;;;2201456;59;1991;-22
2023/07/04 16:36:37;;;;;;;;;;;;;;;;;;2201439;67;2296;-22
2023/07/04 16:39:08;;;;;;;;;;;;;;;;;;2201385;67;2780;-23
2023/07/04 16:41:38;;;;;;;;;;;;;;;;;;2198387;67;2558;-23
2023/07/04 16:44:08;;;;;;;;;;;;;;;;;;2201138;59;1790;-23
2023/07/04 16:46:38;;;;;;;;;;;;;;;;;;2201856;59;1782;-22
2023/07/04 16:49:09;;;;;;;;;;;;;;;;;;2200916;67;1829;-23
2023/07/04 16:51:39;;;;;;;;;;;;;;;;;;2202142;59;2733;-23
2023/07/04 16:54:09;;;;;;;;;;;;;;;;;;2197342;67;2087;-23
2023/07/04 16:56:40;;;;;;;;;;;;;;;;;;2201507;67;2576;-23
2023/07/04 16:59:10;;;;;;;;;;;;;;;;;;2200309;67;2297;-23
2023/07/04 17:01:41;;;;;;;;;;;;;;;;;;2201203;67;2692;-22
2023/07/04 17:04:11;;;;;;;;;;;;;;;;;;2200534;67;2403;-23
2023/07/04 17:06:41;;;;;;;;;;;;;;;;;;2201551;59;1935;-23
2023/07/04 17:09:11;;;;;;;;;;;;;;;;;;2201150;59;2006;-23
2023/07/04 17:11:42;;;;;;;;;;;;;;;;;;2201725;67;2419;-23
2023/07/04 17:14:12;;;;;;;;;;;;;;;;;;2201815;67;2546;-23
2023/07/04 17:16:42;;;;;;;;;;;;;;;;;;2201455;67;3014;-23
2023/07/04 17:19:12;;;;;;;;;;;;;;;;;;2201640;67;2640;-23
2023/07/04 17:21:42;;;;;;;;;;;;;;;;;;2202094;59;1870;-23
2023/07/04 17:24:13;;;;;;;;;;;;;;;;;;2200541;59;1890;-23
2023/07/04 17:26:44;;;;;;;;;;;;;;;;;;2197910;59;1940;-23
2023/07/04 17:29:14;;;;;;;;;;;;;;;;;;2201199;59;1782;-23
2023/07/04 17:31:44;;;;;;;;;;;;;;;;;;2201857;67;2016;-23
2023/07/04 17:34:14;;;;;;;;;;;;;;;;;;2201069;67;2700;-22
2023/07/04 17:36:44;;;;;;;;;;;;;;;;;;2202006;67;2579;-22
2023/07/04 17:39:15;;;;;;;;;;;;;;;;;;2201279;67;1708;-23